Time;durP1;ratioP1;P1;durP2;ratioP2;P2;SDS_P1;SDS_P2;PMS_P1;PMS_P2;Temp;Humidity;BMP_temperature;BMP_pressure;BME280_temperature;BME280_humidity;BME280_pressure;Samples;Min_cycle;Max_cycle;Signal;HPM_P1;HPM_P2
2023/06/09 00:01:58;;;;;;;13.50;7.40;;;;;;;13.95;100.00;100610.39;104919;1268;72713;-60
2023/06/09 00:04:26;;;;;;;12.10;6.30;;;;;;;13.95;100.00;100609.08;104454;1266;61192;-62
2023/06/09 00:06:54;;;;;;;14.30;6.60;;;;;;;13.93;100.00;100607.71;104390;1265;60489;-63
2023/06/09 00:09:21;;;;;;;13.80;6.40;;;;;;;13.92;100.00;100605.43;104907;1269;73807;-66
2023/06/09 00:11:48;;;;;;;12.60;7.00;;;;;;;13.90;100.00;100608.51;104334;1269;66057;-63
2023/06/09 00:14:15;;;;;;;14.80;6.50;;;;;;;13.89;100.00;100608.75;104825;1270;71477;-67
2023/06/09 00:16:46;;;;;;;10.40;5.60;;;;;;;13.90;100.00;100612.17;104675;1270;60484;-62
2023/06/09 00:19:14;;;;;;;13.60;7.90;;;;;;;13.91;100.00;100608.53;104599;1267;60478;-60
2023/06/09 00:21:44;;;;;;;11.40;6.20;;;;;;;13.92;100.00;100609.37;104766;1270;73499;-60
2023/06/09 00:24:11;;;;;;;12.70;6.50;;;;;;;13.93;100.00;100607.91;104632;1265;67169;-69
2023/06/09 00:26:38;;;;;;;12.70;5.60;;;;;;;13.93;100.00;100610.14;104595;1269;71600;-62
2023/06/09 00:29:06;;;;;;;11.00;5.80;;;;;;;13.93;100.00;100607.69;104714;1269;60830;-63
2023/06/09 00:31:34;;;;;;;10.90;5.30;;;;;;;13.93;100.00;100604.54;104624;1265;60438;-60
2023/06/09 00:34:01;;;;;;;8.00;5.60;;;;;;;13.95;100.00;100608.14;104969;1270;73878;-62
2023/06/09 00:36:28;;;;;;;12.30;6.10;;;;;;;13.97;100.00;100608.14;104276;1266;68340;-61
2023/06/09 00:38:55;;;;;;;11.40;5.50;;;;;;;13.98;100.00;100607.41;104588;1265;72572;-62
2023/06/09 00:41:23;;;;;;;10.40;5.70;;;;;;;13.97;100.00;100609.14;104609;1266;61813;-69
2023/06/09 00:43:50;;;;;;;12.90;5.90;;;;;;;13.93;100.00;100609.25;104555;1265;60807;-64
2023/06/09 00:46:17;;;;;;;12.20;5.90;;;;;;;13.89;100.00;100609.39;104503;1269;73968;-62
2023/06/09 00:48:44;;;;;;;10.10;5.40;;;;;;;13.87;100.00;100610.77;104316;1265;66985;-61
2023/06/09 00:51:11;;;;;;;11.30;6.00;;;;;;;13.86;100.00;100612.46;104539;1277;72770;-62
2023/06/09 00:53:38;;;;;;;13.40;6.50;;;;;;;13.85;100.00;100614.46;105021;1264;60450;-63
2023/06/09 00:56:05;;;;;;;10.60;5.50;;;;;;;13.84;100.00;100618.50;104592;1266;60596;-69
2023/06/09 00:58:32;;;;;;;10.80;6.20;;;;;;;13.82;100.00;100616.30;104562;1269;74435;-61
2023/06/09 01:01:00;;;;;;;9.70;5.90;;;;;;;13.78;100.00;100621.54;104633;1269;66175;-62
2023/06/09 01:03:27;;;;;;;13.30;6.00;;;;;;;13.73;100.00;100621.04;104563;1269;72806;-63
2023/06/09 01:05:59;;;;;;;12.00;6.40;;;;;;;13.70;100.00;100621.52;104712;1269;60560;-61
2023/06/09 01:09:16;;;;;;;11.70;6.30;;;;;;;13.68;100.00;100623.66;104695;1269;60425;-61
2023/06/09 01:11:58;;;;;;;13.20;6.70;;;;;;;13.67;100.00;100622.40;104606;1269;73978;-65
2023/06/09 01:14:33;;;;;;;10.50;6.60;;;;;;;13.65;100.00;100620.75;104448;1271;65982;-61
2023/06/09 01:17:08;;;;;;;9.10;6.20;;;;;;;13.62;100.00;100617.79;104572;1269;71293;-60
2023/06/09 01:19:43;;;;;;;8.90;6.10;;;;;;;13.58;100.00;100617.77;104585;1265;62076;-62
2023/06/09 01:22:20;;;;;;;9.20;6.10;;;;;;;13.53;100.00;100616.70;104676;1265;60374;-60
2023/06/09 01:25:17;;;;;;;10.80;5.70;;;;;;;13.49;100.00;100616.27;104908;1269;73148;-60
2023/06/09 01:27:45;;;;;;;8.30;5.70;;;;;;;13.45;100.00;100609.47;104604;1265;65850;-61
2023/06/09 01:30:12;;;;;;;10.30;6.40;;;;;;;13.41;100.00;100611.67;104343;1265;71273;-67
2023/06/09 01:32:41;;;;;;;9.70;6.00;;;;;;;13.39;100.00;100610.21;104567;1267;61603;-61
2023/06/09 01:35:08;;;;;;;10.40;5.60;;;;;;;13.38;100.00;100609.24;104612;1266;60394;-61
2023/06/09 01:37:35;;;;;;;10.20;5.70;;;;;;;13.38;100.00;100608.55;104602;1269;73578;-60
2023/06/09 01:40:03;;;;;;;8.20;5.70;;;;;;;13.39;100.00;100608.07;104873;1266;67431;-60
2023/06/09 01:42:30;;;;;;;11.00;6.40;;;;;;;13.40;100.00;100603.05;104848;1266;72970;-67
2023/06/09 01:44:57;;;;;;;9.50;6.40;;;;;;;13.44;100.00;100606.16;104656;1270;62512;-60
2023/06/09 01:47:27;;;;;;;12.20;6.70;;;;;;;13.47;100.00;100609.96;105073;1266;60418;-62
2023/06/09 01:50:05;;;;;;;10.70;5.70;;;;;;;13.53;100.00;100613.98;104797;1265;72780;-60
2023/06/09 01:52:45;;;;;;;10.00;5.30;;;;;;;13.58;100.00;100612.98;104715;1270;67637;-60
2023/06/09 01:55:34;;;;;;;11.50;5.90;;;;;;;13.63;100.00;100610.02;104686;1265;72804;-62
2023/06/09 01:58:19;;;;;;;12.00;5.70;;;;;;;13.80;100.00;100608.08;105355;1265;60554;-68
2023/06/09 02:00:47;;;;;;;12.40;5.80;;;;;;;14.12;100.00;100606.73;104357;1265;60506;-62
2023/06/09 02:03:20;;;;;;;9.40;5.90;;;;;;;14.49;100.00;100601.54;104366;1272;73633;-60
2023/06/09 02:05:47;;;;;;;9.80;6.10;;;;;;;14.97;100.00;100600.63;104921;1265;67773;-67
2023/06/09 02:08:15;;;;;;;10.60;5.80;;;;;;;15.46;100.00;100595.21;104658;1267;71463;-61
2023/06/09 02:10:42;;;;;;;11.20;6.20;;;;;;;15.93;100.00;100589.69;104632;1270;60468;-62
2023/06/09 02:13:16;;;;;;;12.40;7.20;;;;;;;16.45;100.00;100582.86;104661;1271;60376;-62
2023/06/09 02:15:44;;;;;;;13.80;7.90;;;;;;;17.03;100.00;100576.17;104920;1269;72863;-61
2023/06/09 02:18:12;;;;;;;11.70;7.30;;;;;;;17.61;100.00;100575.17;104652;1271;66014;-61
2023/06/09 02:20:40;;;;;;;14.90;8.20;;;;;;;18.21;100.00;100570.35;104569;1269;71175;-61
2023/06/09 02:23:08;;;;;;;8.50;6.00;;;;;;;18.80;100.00;100561.95;105136;1269;60656;-63
2023/06/09 02:25:35;;;;;;;10.00;5.90;;;;;;;19.36;100.00;100553.82;105138;1265;60415;-62
2023/06/09 02:28:03;;;;;;;9.00;5.40;;;;;;;19.88;100.00;100549.42;104539;1267;74111;-63
2023/06/09 02:30:31;;;;;;;10.80;5.70;;;;;;;20.24;100.00;100544.23;104582;1269;66088;-62
2023/06/09 02:33:00;;;;;;;8.80;6.10;;;;;;;20.48;100.00;100541.19;105165;1269;71806;-61
2023/06/09 02:35:30;;;;;;;10.20;5.20;;;;;;;20.54;100.00;100536.02;105037;1271;60455;-70
2023/06/09 02:37:57;;;;;;;12.10;6.20;;;;;;;20.49;100.00;100539.89;104440;1273;60349;-62
2023/06/09 02:40:29;;;;;;;11.20;6.80;;;;;;;20.57;100.00;100539.83;104556;1269;73802;-63
2023/06/09 02:42:57;;;;;;;9.50;5.20;;;;;;;20.90;100.00;100540.33;105048;1269;65483;-66
2023/06/09 02:45:24;;;;;;;9.00;6.10;;;;;;;21.42;100.00;100534.58;105017;1265;71556;-64
2023/06/09 02:47:52;;;;;;;11.10;6.40;;;;;;;22.10;100.00;100531.52;104770;1269;60613;-62
2023/06/09 02:50:19;;;;;;;10.90;5.80;;;;;;;22.83;100.00;100531.11;104293;1271;60518;-63
2023/06/09 02:52:49;;;;;;;15.40;6.40;;;;;;;23.54;100.00;100533.66;104219;1265;74134;-71
2023/06/09 02:55:18;;;;;;;10.20;6.00;;;;;;;24.14;100.00;100533.61;104429;1271;67633;-65
2023/06/09 02:57:46;;;;;;;8.40;5.50;;;;;;;24.63;100.00;100533.81;104768;1267;73051;-63
2023/06/09 03:00:15;;;;;;;12.10;6.70;;;;;;;24.96;100.00;100533.09;104356;1270;60493;-61
2023/06/09 03:02:46;;;;;;;12.30;5.80;;;;;;;25.24;100.00;100531.57;104988;1267;60519;-63
2023/06/09 03:05:20;;;;;;;10.90;5.80;;;;;;;25.63;100.00;100532.96;105191;1269;74458;-71
2023/06/09 03:07:51;;;;;;;11.90;6.70;;;;;;;26.11;100.00;100530.52;104567;1271;66108;-63
2023/06/09 03:10:19;;;;;;;10.70;6.50;;;;;;;26.58;100.00;100534.06;104893;1271;73787;-61
2023/06/09 03:12:47;;;;;;;11.50;6.10;;;;;;;27.08;100.00;100531.81;104597;1279;60490;-66
2023/06/09 03:15:15;;;;;;;7.60;6.30;;;;;;;27.52;97.66;100533.66;105450;1270;60528;-71
2023/06/09 03:17:43;;;;;;;9.70;6.60;;;;;;;27.87;90.01;100535.86;104396;1271;74248;-64
2023/06/09 03:20:10;;;;;;;10.60;6.60;;;;;;;28.23;86.79;100538.45;104534;1266;66989;-64
2023/06/09 03:22:38;;;;;;;10.50;6.80;;;;;;;28.53;81.04;100537.89;104832;1265;185428;-70
2023/06/09 03:25:06;;;;;;;11.80;7.70;;;;;;;28.76;75.27;100539.98;104302;1270;60786;-62
2023/06/09 03:27:33;;;;;;;10.90;6.60;;;;;;;29.08;71.76;100537.17;105195;1269;60564;-71
2023/06/09 03:30:00;;;;;;;10.80;7.20;;;;;;;29.22;66.17;100536.73;104474;1271;73750;-63
2023/06/09 03:32:27;;;;;;;11.70;8.00;;;;;;;29.09;65.47;100538.49;104390;1270;67332;-64
2023/06/09 03:34:54;;;;;;;13.80;8.70;;;;;;;29.00;64.80;100538.84;104546;1271;72758;-62
2023/06/09 03:37:22;;;;;;;13.50;7.60;;;;;;;28.74;64.66;100538.15;104748;1270;62057;-70
2023/06/09 03:39:50;;;;;;;9.70;7.40;;;;;;;28.56;69.29;100542.02;104577;1266;60420;-63
2023/06/09 03:42:19;;;;;;;13.40;8.70;;;;;;;28.60;69.33;100541.84;104301;1270;72752;-62
2023/06/09 03:44:46;;;;;;;11.50;8.10;;;;;;;28.49;69.12;100548.98;104706;1271;67327;-62
2023/06/09 03:47:14;;;;;;;15.10;8.80;;;;;;;28.16;71.00;100550.83;104165;1272;72611;-62
2023/06/09 03:49:41;;;;;;;14.20;9.90;;;;;;;27.77;73.71;100549.14;104997;1269;60471;-69
2023/06/09 03:52:08;;;;;;;18.80;10.30;;;;;;;27.16;75.51;100551.64;104623;1270;60430;-62
2023/06/09 03:54:36;;;;;;;18.20;11.00;;;;;;;26.41;81.06;100554.10;104581;1269;73893;-61
2023/06/09 03:57:03;;;;;;;18.20;11.50;;;;;;;26.02;90.38;100556.13;104233;1271;67285;-62
2023/06/09 03:59:32;;;;;;;20.00;11.90;;;;;;;26.26;92.88;100552.77;104565;1266;71381;-63
2023/06/09 04:01:59;;;;;;;17.50;12.50;;;;;;;26.89;87.78;100552.20;104837;1270;61013;-63
2023/06/09 04:04:26;;;;;;;19.50;11.80;;;;;;;27.61;79.40;100550.10;104660;1270;60389;-64
2023/06/09 04:06:56;;;;;;;19.00;12.50;;;;;;;28.17;69.25;100553.11;104642;1271;74493;-68
2023/06/09 04:09:23;;;;;;;16.90;10.90;;;;;;;28.41;64.61;100549.69;104591;1267;66964;-66
2023/06/09 04:11:50;;;;;;;17.20;12.30;;;;;;;28.71;64.59;100547.80;104526;1271;73253;-62
2023/06/09 04:14:17;;;;;;;20.30;11.70;;;;;;;29.06;60.02;100546.72;105058;1267;60658;-62
2023/06/09 04:16:45;;;;;;;18.10;11.10;;;;;;;29.26;59.48;100547.77;104744;1265;60445;-62
2023/06/09 04:19:12;;;;;;;14.30;10.50;;;;;;;29.66;56.07;100546.09;104740;1266;72699;-68
2023/06/09 04:21:39;;;;;;;17.10;10.70;;;;;;;30.13;51.25;100547.95;104446;1273;67275;-62
2023/06/09 04:24:08;;;;;;;18.40;10.40;;;;;;;30.30;48.28;100547.64;104617;1270;71602;-62
2023/06/09 04:26:39;;;;;;;13.20;8.80;;;;;;;30.51;48.12;100550.65;104582;1272;60657;-63
2023/06/09 04:29:09;;;;;;;12.70;9.80;;;;;;;30.92;45.96;100546.73;104509;1269;61059;-69
2023/06/09 04:31:37;;;;;;;16.30;9.80;;;;;;;31.28;45.33;100548.36;104239;1267;72728;-62
2023/06/09 04:34:12;;;;;;;14.30;9.30;;;;;;;31.73;42.50;100548.22;104649;1268;66108;-62
2023/06/09 04:36:44;;;;;;;11.70;7.90;;;;;;;31.99;40.50;100548.00;104571;1267;72503;-62
2023/06/09 04:39:12;;;;;;;16.30;8.90;;;;;;;32.30;39.18;100551.46;104667;1273;60408;-67
2023/06/09 04:41:39;;;;;;;14.40;9.40;;;;;;;32.49;39.00;100551.52;104350;1271;60586;-62
2023/06/09 04:44:07;;;;;;;12.50;8.20;;;;;;;32.64;37.62;100547.63;104534;1267;74440;-62
2023/06/09 04:46:38;;;;;;;13.30;8.30;;;;;;;32.82;37.26;100548.42;104243;1281;66057;-61
2023/06/09 04:49:12;;;;;;;;;;;;;;;33.08;36.52;100544.83;105152;1267;70953;-61
2023/06/09 04:51:48;;;;;;;18.30;8.40;;;;;;;33.22;34.96;100545.50;104657;1272;60559;-62
2023/06/09 04:54:25;;;;;;;16.10;8.20;;;;;;;33.14;35.56;100544.38;104561;1270;62158;-62
2023/06/09 04:56:52;;;;;;;13.60;7.80;;;;;;;33.20;35.86;100547.92;104597;1269;72770;-63
2023/06/09 04:59:21;;;;;;;11.60;8.90;;;;;;;33.30;35.13;100546.34;104962;1270;67253;-63
2023/06/09 05:01:48;;;;;;;14.10;7.70;;;;;;;33.62;35.65;100540.05;104804;1267;72654;-63
2023/06/09 05:04:17;;;;;;;15.80;8.10;;;;;;;34.01;33.66;100535.95;104528;1269;60374;-65
2023/06/09 05:06:45;;;;;;;13.90;7.20;;;;;;;34.13;33.15;100533.93;104719;1270;60471;-67
2023/06/09 05:09:12;;;;;;;16.20;8.00;;;;;;;34.24;33.44;100541.71;104747;1270;73921;-64
2023/06/09 05:11:39;;;;;;;12.40;7.90;;;;;;;34.27;32.64;100541.58;104682;1270;67200;-65
2023/06/09 05:14:07;;;;;;;14.80;8.70;;;;;;;34.14;32.68;100544.91;105247;1267;62764;-65
2023/06/09 05:16:35;;;;;;;10.30;7.10;;;;;;;34.12;32.84;100541.78;104613;1270;60916;-64
2023/06/09 05:19:03;;;;;;;11.30;6.90;;;;;;;34.10;33.41;100539.70;104805;1264;60952;-66
2023/06/09 05:21:31;;;;;;;18.30;8.10;;;;;;;34.47;33.42;100539.21;104927;1270;74659;-71
2023/06/09 05:23:58;;;;;;;15.00;7.80;;;;;;;34.94;32.22;100536.20;104891;1269;60452;-66
2023/06/09 05:26:25;;;;;;;12.50;7.70;;;;;;;35.33;31.22;100536.46;105022;1268;62822;-65
2023/06/09 05:28:53;;;;;;;12.60;7.30;;;;;;;35.53;29.93;100533.98;105082;1264;60473;-70
2023/06/09 05:31:20;;;;;;;13.10;7.10;;;;;;;35.37;29.65;100532.02;104331;1265;60550;-64
2023/06/09 05:33:47;;;;;;;15.50;7.60;;;;;;;35.24;29.69;100532.79;104603;1269;73785;-69
2023/06/09 05:36:14;;;;;;;12.00;6.90;;;;;;;35.17;29.44;100531.58;104547;1263;60889;-64
2023/06/09 05:38:46;;;;;;;11.10;6.70;;;;;;;34.98;29.10;100533.11;104498;1264;63986;-65
2023/06/09 05:41:14;;;;;;;13.10;6.90;;;;;;;34.79;29.66;100529.27;104730;1268;60438;-64
2023/06/09 05:43:41;;;;;;;12.10;6.50;;;;;;;34.62;30.72;100529.73;104750;1269;60531;-64
2023/06/09 05:46:09;;;;;;;14.40;6.50;;;;;;;34.80;31.49;100527.27;104736;1267;66989;-65
2023/06/09 05:48:36;;;;;;;14.70;6.90;;;;;;;35.08;30.34;100526.36;104780;1264;60509;-63
2023/06/09 05:51:03;;;;;;;10.80;6.50;;;;;;;35.04;30.17;100524.38;105128;1263;64085;-70
2023/06/09 05:53:32;;;;;;;13.20;6.00;;;;;;;34.97;30.27;100529.67;104624;1281;60551;-64
2023/06/09 05:56:00;;;;;;;10.10;6.40;;;;;;;34.92;30.71;100530.48;104947;1269;60400;-65
2023/06/09 05:58:33;;;;;;;11.40;6.70;;;;;;;34.96;30.22;100527.40;104817;1265;73993;-64
2023/06/09 06:01:03;;;;;;;9.30;5.60;;;;;;;34.92;30.42;100525.80;104619;1269;67387;-65
2023/06/09 06:03:31;;;;;;;8.90;5.60;;;;;;;34.92;29.71;100525.27;104850;1269;62907;-68
2023/06/09 06:05:58;;;;;;;10.30;5.20;;;;;;;34.73;28.71;100525.12;105279;1267;60431;-65
2023/06/09 06:08:26;;;;;;;9.40;6.00;;;;;;;34.39;29.81;100522.40;105108;1267;62392;-65
2023/06/09 06:10:53;;;;;;;10.60;6.00;;;;;;;34.21;29.90;100521.43;104829;1267;63818;-65
2023/06/09 06:13:20;;;;;;;9.00;6.10;;;;;;;34.02;30.45;100521.70;104840;1267;59343;-70
2023/06/09 06:15:50;;;;;;;11.60;6.70;;;;;;;33.92;31.11;100519.64;105249;1267;72615;-66
2023/06/09 06:18:19;;;;;;;8.70;5.90;;;;;;;34.06;31.08;100514.50;104598;1270;60763;-64
2023/06/09 06:20:46;;;;;;;10.40;4.60;;;;;;;34.27;29.62;100510.70;104655;1267;60566;-65
2023/06/09 06:23:13;;;;;;;9.80;5.30;;;;;;;34.22;29.68;100509.87;104743;1266;65147;-71
2023/06/09 06:25:43;;;;;;;11.20;5.30;;;;;;;34.02;30.05;100507.79;104862;1270;67264;-63
2023/06/09 06:28:10;;;;;;;9.80;5.20;;;;;;;33.85;30.63;100508.90;104799;1267;64091;-65
2023/06/09 06:30:37;;;;;;;9.20;5.40;;;;;;;33.80;30.57;100505.77;104785;1269;60550;-65
2023/06/09 06:33:04;;;;;;;8.60;5.30;;;;;;;33.72;31.30;100506.59;104922;1269;60434;-71
2023/06/09 06:35:31;;;;;;;9.00;4.80;;;;;;;33.79;31.32;100504.98;104281;1272;73712;-65
2023/06/09 06:37:58;;;;;;;9.20;5.50;;;;;;;33.95;31.09;100506.92;104532;1270;67208;-64
2023/06/09 06:40:26;;;;;;;7.30;4.50;;;;;;;33.99;31.13;100499.15;104325;1263;64175;-65
2023/06/09 06:42:52;;;;;;;9.50;4.90;;;;;;;33.97;30.53;100496.33;104883;1268;60462;-64
2023/06/09 06:45:28;;;;;;;10.90;4.30;;;;;;;33.92;30.55;100490.73;104529;1264;60526;-65
2023/06/09 06:47:55;;;;;;;6.70;4.60;;;;;;;33.98;29.89;100493.90;105293;1270;72688;-64
2023/06/09 06:50:23;;;;;;;7.00;3.50;;;;;;;33.99;29.98;100487.00;104800;1263;60454;-64
2023/06/09 06:52:53;;;;;;;7.80;3.20;;;;;;;34.00;30.19;100488.34;104898;1270;72628;-69
2023/06/09 06:55:20;;;;;;;6.30;3.80;;;;;;;34.01;28.62;100487.38;104382;1270;60589;-66
2023/06/09 06:57:46;;;;;;;6.80;3.60;;;;;;;33.86;28.02;100484.30;105247;1269;60456;-64
2023/06/09 07:00:15;;;;;;;9.60;3.70;;;;;;;33.73;28.50;100486.31;104846;1269;65093;-64
2023/06/09 07:02:47;;;;;;;8.10;3.40;;;;;;;33.73;29.27;100485.45;104527;1270;60437;-63
2023/06/09 07:05:15;;;;;;;5.10;3.60;;;;;;;33.87;29.23;100482.78;104705;1267;73094;-71
2023/06/09 07:07:44;;;;;;;7.10;4.20;;;;;;;33.85;28.49;100488.25;105062;1266;60354;-65
2023/06/09 07:10:11;;;;;;;7.70;3.60;;;;;;;33.65;29.15;100487.03;104803;1270;60536;-64
2023/06/09 07:12:38;;;;;;;8.30;3.40;;;;;;;33.58;29.23;100485.18;104652;1269;73814;-64
2023/06/09 07:15:06;;;;;;;6.70;3.80;;;;;;;33.62;29.77;100485.48;104561;1270;67231;-66
2023/06/09 07:17:33;;;;;;;6.20;3.20;;;;;;;33.77;30.39;100482.30;105477;1270;64051;-66
2023/06/09 07:20:00;;;;;;;6.70;3.70;;;;;;;33.98;29.67;100479.16;104665;1266;60479;-65
2023/06/09 07:22:28;;;;;;;7.50;3.80;;;;;;;34.08;29.38;100482.11;104978;1267;60425;-65
2023/06/09 07:24:55;;;;;;;5.20;3.70;;;;;;;34.12;29.91;100483.18;104872;1267;65246;-66
2023/06/09 07:27:22;;;;;;;7.90;4.00;;;;;;;34.19;28.65;100483.77;105019;1267;65291;-69
2023/06/09 07:29:49;;;;;;;7.00;4.00;;;;;;;34.25;28.94;100479.57;105223;1265;72931;-65
2023/06/09 07:32:16;;;;;;;9.60;3.30;;;;;;;34.20;28.02;100481.66;105177;1267;60537;-65
2023/06/09 07:34:45;;;;;;;5.50;2.60;;;;;;;33.83;26.54;100484.40;105081;1266;60394;-65
2023/06/09 07:37:12;;;;;;;4.60;2.80;;;;;;;33.37;26.66;100479.60;104989;1265;72701;-64
2023/06/09 07:39:39;;;;;;;5.10;2.90;;;;;;;33.07;26.84;100485.45;105185;1270;66197;-71
2023/06/09 07:42:07;;;;;;;7.20;3.40;;;;;;;32.74;26.95;100475.09;105183;1269;72566;-68
2023/06/09 07:44:35;;;;;;;8.40;3.20;;;;;;;32.51;28.51;100480.35;104958;1266;60467;-67
2023/06/09 07:47:02;;;;;;;7.10;3.50;;;;;;;32.48;30.33;100477.06;105093;1266;60414;-68
2023/06/09 07:49:29;;;;;;;5.60;2.90;;;;;;;32.61;30.51;100476.27;105003;1265;72651;-71
2023/06/09 07:51:56;;;;;;;5.20;2.90;;;;;;;32.75;28.13;100469.55;104903;1271;67306;-68
2023/06/09 07:54:24;;;;;;;5.50;3.20;;;;;;;32.85;28.37;100474.16;105065;1269;72425;-67
2023/06/09 07:56:51;;;;;;;5.60;3.20;;;;;;;32.97;27.53;100469.57;104932;1269;60589;-66
2023/06/09 07:59:18;;;;;;;6.60;2.70;;;;;;;33.00;26.87;100471.38;104920;1270;60372;-74
2023/06/09 08:01:46;;;;;;;4.50;2.90;;;;;;;32.97;26.07;100474.14;105016;1270;73134;-71
2023/06/09 08:04:13;;;;;;;7.00;2.80;;;;;;;32.81;25.75;100477.90;105042;1269;65956;-65
2023/06/09 08:06:41;;;;;;;6.30;2.40;;;;;;;32.63;26.01;100469.17;104932;1264;72586;-67
2023/06/09 08:09:09;;;;;;;5.10;3.20;;;;;;;32.50;26.72;100469.88;104846;1268;60443;-66
2023/06/09 08:11:38;;;;;;;4.40;2.80;;;;;;;32.25;27.06;100470.09;105053;1264;60645;-67
2023/06/09 08:14:08;;;;;;;5.00;3.00;;;;;;;31.97;27.31;100473.10;105168;1264;74326;-68
2023/06/09 08:16:36;;;;;;;;;;;;;;;31.76;27.91;100466.97;104975;1268;66060;-67
2023/06/09 08:19:03;;;;;;;3.70;2.70;;;;;;;31.66;27.19;100468.23;104924;1264;74199;-66
2023/06/09 08:21:30;;;;;;;4.20;2.80;;;;;;;31.42;27.96;100469.41;105101;1263;60483;-71
2023/06/09 08:23:57;;;;;;;4.80;2.90;;;;;;;31.12;28.29;100468.48;104978;1263;60717;-66
2023/06/09 08:26:24;;;;;;;5.10;3.30;;;;;;;30.96;28.45;100464.92;104861;1264;72462;-67
2023/06/09 08:28:51;;;;;;;6.30;3.30;;;;;;;30.98;29.30;100455.82;104979;1264;67669;-66
2023/06/09 08:31:21;;;;;;;4.10;2.60;;;;;;;31.14;29.68;100456.84;104951;1264;71313;-67
2023/06/09 08:33:48;;;;;;;4.90;2.90;;;;;;;31.38;29.07;100456.92;104996;1266;60542;-66
2023/06/09 08:36:15;;;;;;;4.10;2.80;;;;;;;31.56;28.46;100453.09;105025;1266;60449;-68
2023/06/09 08:38:44;;;;;;;4.20;2.90;;;;;;;31.82;29.15;100447.60;104948;1270;73673;-69
2023/06/09 08:41:11;;;;;;;5.90;3.50;;;;;;;32.10;28.25;100446.83;105123;1264;67670;-65
2023/06/09 08:43:38;;;;;;;5.40;3.20;;;;;;;32.18;27.69;100450.64;104782;1267;72702;-71
2023/06/09 08:46:06;;;;;;;6.20;3.00;;;;;;;32.19;28.15;100450.69;104919;1269;60978;-72
2023/06/09 08:48:35;;;;;;;6.10;3.40;;;;;;;32.31;27.90;100448.29;105084;1265;60355;-66
2023/06/09 08:51:02;;;;;;;5.10;2.70;;;;;;;32.42;27.51;100441.23;104836;1270;72805;-65
2023/06/09 08:53:29;;;;;;;4.90;2.60;;;;;;;32.43;26.87;100432.15;104835;1267;67062;-66
2023/06/09 08:55:58;;;;;;;4.90;2.80;;;;;;;32.55;27.02;100434.67;104732;1269;73205;-71
2023/06/09 08:58:26;;;;;;;5.10;3.00;;;;;;;32.61;27.42;100437.18;104903;1270;60864;-67
2023/06/09 09:00:53;;;;;;;5.00;3.10;;;;;;;32.48;26.80;100438.05;105080;1266;60375;-64
2023/06/09 09:03:23;;;;;;;4.30;2.90;;;;;;;32.37;26.81;100444.20;104887;1268;72503;-65
2023/06/09 09:05:50;;;;;;;6.10;3.30;;;;;;;32.35;26.18;100443.39;104576;1265;67203;-72
2023/06/09 09:08:17;;;;;;;4.90;2.80;;;;;;;32.27;26.51;100448.27;104482;1271;72727;-67
2023/06/09 09:10:47;;;;;;;5.60;3.50;;;;;;;32.04;26.79;100449.08;104371;1269;60479;-62
2023/06/09 09:13:14;;;;;;;5.10;3.30;;;;;;;31.80;26.85;100449.65;105043;1270;60351;-66
2023/06/09 09:15:49;;;;;;;4.30;2.80;;;;;;;31.69;26.79;100444.64;104954;1265;73690;-71
2023/06/09 09:18:17;;;;;;;6.00;3.40;;;;;;;31.64;27.03;100439.50;104747;1265;67000;-66
2023/06/09 09:20:44;;;;;;;5.50;3.10;;;;;;;31.48;27.62;100441.59;104594;1266;72741;-65
2023/06/09 09:23:11;;;;;;;4.50;2.50;;;;;;;31.14;28.75;100437.39;105321;1265;60518;-67
2023/06/09 09:25:38;;;;;;;6.70;3.00;;;;;;;31.02;29.16;100428.30;104875;1265;60557;-68
2023/06/09 09:28:10;;;;;;;6.20;3.40;;;;;;;31.14;28.48;100428.84;104651;1267;72521;-71
2023/06/09 09:30:48;;;;;;;5.60;3.30;;;;;;;31.26;29.03;100432.98;104590;1270;64981;-66
2023/06/09 09:33:18;;;;;;;4.90;3.30;;;;;;;31.36;28.53;100427.91;104359;1267;71848;-67
2023/06/09 09:35:53;;;;;;;6.10;2.90;;;;;;;31.65;28.54;100429.77;104659;1266;60646;-66
2023/06/09 09:38:24;;;;;;;6.40;3.60;;;;;;;31.88;27.68;100430.05;104384;1267;60426;-66
2023/06/09 09:40:53;;;;;;;5.90;3.40;;;;;;;31.90;27.24;100422.98;104538;1266;73830;-64
2023/06/09 09:43:20;;;;;;;5.50;2.70;;;;;;;32.04;27.43;100429.72;104363;1271;66220;-66
2023/06/09 09:45:50;;;;;;;6.00;2.90;;;;;;;32.13;27.02;100422.05;104710;1265;71399;-70
2023/06/09 09:48:20;;;;;;;6.00;3.50;;;;;;;32.30;26.85;100420.66;104602;1265;60558;-66
2023/06/09 09:50:48;;;;;;;4.20;2.60;;;;;;;32.47;27.00;100419.27;104496;1266;60492;-65
2023/06/09 09:53:15;;;;;;;4.40;2.80;;;;;;;32.56;26.74;100421.94;105099;1264;73033;-66
2023/06/09 09:55:46;;;;;;;5.00;3.00;;;;;;;32.42;26.02;100423.70;104525;1269;61057;-65
2023/06/09 09:58:14;;;;;;;4.30;2.40;;;;;;;32.06;26.54;100421.46;104499;1269;73296;-66
2023/06/09 10:00:42;;;;;;;4.10;2.70;;;;;;;31.78;27.07;100413.89;104968;1264;60554;-70
2023/06/09 10:03:10;;;;;;;5.80;3.40;;;;;;;31.51;27.23;100413.98;104929;1265;60489;-66
2023/06/09 10:05:39;;;;;;;5.30;3.30;;;;;;;31.12;28.73;100410.75;104613;1265;73813;-65
2023/06/09 10:08:07;;;;;;;5.60;3.00;;;;;;;30.91;28.54;100413.77;105222;1267;67178;-68
2023/06/09 10:10:34;;;;;;;4.30;2.60;;;;;;;30.68;29.06;100408.27;104762;1265;72190;-67
2023/06/09 10:13:03;;;;;;;6.10;3.60;;;;;;;30.55;29.21;100412.34;104576;1270;60529;-67
2023/06/09 10:15:33;;;;;;;4.30;2.70;;;;;;;30.56;29.35;100404.48;104498;1265;60784;-64
2023/06/09 10:18:00;;;;;;;7.20;2.70;;;;;;;30.72;29.33;100397.40;104784;1264;73924;-71
2023/06/09 10:20:29;;;;;;;6.70;2.50;;;;;;;30.93;29.86;100393.14;105121;1265;65736;-69
2023/06/09 10:22:56;;;;;;;4.30;2.80;;;;;;;31.15;29.75;100398.81;104739;1267;71426;-68
2023/06/09 10:25:24;;;;;;;5.10;3.00;;;;;;;31.30;28.89;100397.86;104643;1269;60567;-66
2023/06/09 10:27:51;;;;;;;4.10;3.00;;;;;;;31.38;28.39;100388.73;104655;1265;60483;-66
2023/06/09 10:30:18;;;;;;;4.50;3.00;;;;;;;31.58;28.44;100384.27;105033;1264;73652;-66
2023/06/09 10:32:58;;;;;;;6.30;3.40;;;;;;;31.76;28.94;100379.93;104706;1265;67049;-73
2023/06/09 10:35:27;;;;;;;7.70;3.60;;;;;;;31.96;28.80;100382.86;104885;1270;71165;-66
2023/06/09 10:37:56;;;;;;;4.70;2.80;;;;;;;32.15;28.49;100379.54;104855;1270;61017;-66
2023/06/09 10:40:30;;;;;;;4.30;2.90;;;;;;;32.33;28.47;100378.08;104851;1265;60570;-65
2023/06/09 10:43:22;;;;;;;5.70;2.50;;;;;;;32.33;28.17;100378.69;105063;1269;73624;-66
2023/06/09 10:45:54;;;;;;;5.60;3.00;;;;;;;32.03;27.50;100377.54;104884;1269;67283;-65
2023/06/09 10:48:48;;;;;;;5.30;3.10;;;;;;;31.55;27.49;100381.81;104536;1270;72807;-66
2023/06/09 10:51:27;;;;;;;5.70;3.20;;;;;;;31.00;28.15;100379.41;104505;1269;60424;-65
2023/06/09 10:54:27;;;;;;;4.00;3.00;;;;;;;30.86;28.91;100371.06;104566;1265;60715;-66
2023/06/09 10:57:00;;;;;;;4.10;2.90;;;;;;;31.06;30.17;100373.73;105114;1269;73913;-66
2023/06/09 10:59:30;;;;;;;5.40;3.10;;;;;;;31.14;29.02;100366.73;105038;1267;67308;-73
2023/06/09 11:02:02;;;;;;;5.90;3.20;;;;;;;31.08;29.35;100362.46;104375;1266;72759;-67
2023/06/09 11:07:13;;;;;;;2.80;2.30;;;;;;;30.65;29.67;100359.21;104647;1270;60458;-67
2023/06/09 11:10:01;;;;;;;4.10;2.70;;;;;;;30.20;29.99;100357.59;104708;1265;73926;-69
2023/06/09 11:12:30;;;;;;;5.20;3.20;;;;;;;29.80;31.24;100350.31;104813;1270;67088;-68
2023/06/09 11:14:58;;;;;;;5.90;2.70;;;;;;;29.63;32.82;100347.85;104564;1269;72574;-66
2023/06/09 11:17:37;;;;;;;8.00;3.40;;;;;;;29.78;32.73;100345.58;104970;1266;60702;-66
2023/06/09 11:20:10;;;;;;;4.30;3.10;;;;;;;30.15;32.47;100342.86;105135;1265;60368;-66
2023/06/09 11:22:41;;;;;;;4.10;2.60;;;;;;;30.45;32.32;100341.48;104645;1268;73896;-67
2023/06/09 11:25:30;;;;;;;5.20;3.40;;;;;;;30.51;31.96;100344.70;104939;1268;67044;-71